Time;durP1;ratioP1;P1;durP2;ratioP2;P2;SDS_P1;SDS_P2;PMS_P1;PMS_P2;Temp;Humidity;BMP_temperature;BMP_pressure;BME280_temperature;BME280_humidity;BME280_pressure;Samples;Min_cycle;Max_cycle;Signal;HPM_P1;HPM_P2
2022/06/29 00:00:19;;;;;;;6.90;3.63;;;20.10;64.40;;;;;;5058304;28;20817;-88
2022/06/29 00:02:45;;;;;;;3.67;3.27;;;20.00;64.00;;;;;;5058007;28;20471;-88
2022/06/29 00:05:14;;;;;;;5.45;3.35;;;20.00;64.40;;;;;;5055289;28;20469;-88
2022/06/29 00:07:41;;;;;;;4.10;2.60;;;19.90;64.70;;;;;;5043395;28;20197;-88
2022/06/29 00:10:08;;;;;;;4.72;3.30;;;19.90;65.10;;;;;;5040470;28;20412;-88
2022/06/29 00:12:34;;;;;;;5.10;2.70;;;19.90;65.40;;;;;;5058338;28;20269;-88
2022/06/29 00:15:03;;;;;;;5.80;3.30;;;19.80;65.40;;;;;;5040443;28;20173;-88
2022/06/29 00:17:31;;;;;;;5.85;3.55;;;19.80;65.80;;;;;;5039774;28;20431;-87
2022/06/29 00:19:58;;;;;;;6.47;3.10;;;19.70;66.00;;;;;;5041018;28;20185;-88
2022/06/29 00:22:25;;;;;;;5.13;3.22;;;19.70;65.80;;;;;;5073827;28;20447;-89
2022/06/29 00:24:50;;;;;;;4.38;3.30;;;19.70;65.80;;;;;;5060792;28;20177;-88
2022/06/29 00:27:16;;;;;;;4.67;2.93;;;19.70;65.60;;;;;;5059374;28;20604;-88
2022/06/29 00:29:42;;;;;;;4.23;3.03;;;19.80;65.10;;;;;;5059758;28;20188;-87
2022/06/29 00:32:08;;;;;;;3.17;2.87;;;19.80;64.60;;;;;;5060080;28;20938;-88
2022/06/29 00:34:34;;;;;;;3.67;3.07;;;19.70;64.40;;;;;;5060618;28;20347;-88
2022/06/29 00:37:00;;;;;;;3.63;3.33;;;19.80;64.20;;;;;;5077890;28;20923;-89
2022/06/29 00:39:26;;;;;;;6.50;3.63;;;19.70;64.40;;;;;;5048447;28;20266;-88
2022/06/29 00:41:52;;;;;;;4.85;3.55;;;19.70;65.00;;;;;;5040760;28;20520;-88
2022/06/29 00:44:20;;;;;;;4.90;3.90;;;19.60;65.20;;;;;;5042081;28;20684;-88
2022/06/29 00:47:05;;;;;;;3.58;3.00;;;19.60;65.20;;;;;;5040604;28;20478;-88
2022/06/29 00:49:32;;;;;;;4.22;3.80;;;19.50;65.20;;;;;;5042163;28;20173;-87
2022/06/29 00:52:05;;;;;;;2.78;2.58;;;19.50;65.20;;;;;;5041310;28;20641;-88
2022/06/29 00:54:43;;;;;;;5.07;3.72;;;19.50;65.50;;;;;;5041213;28;20173;-87
2022/06/29 00:57:16;;;;;;;4.15;3.55;;;19.40;65.50;;;;;;5039336;28;20196;-87
2022/06/29 00:59:45;;;;;;;4.70;3.30;;;19.40;65.60;;;;;;5039955;28;20181;-88
2022/06/29 01:02:14;;;;;;;4.25;3.85;;;19.40;65.90;;;;;;5039984;28;20205;-87
2022/06/29 01:04:40;;;;;;;4.68;3.33;;;19.30;66.50;;;;;;5039316;28;20196;-88
2022/06/29 01:07:06;;;;;;;3.95;3.58;;;19.30;66.60;;;;;;5040032;28;20197;-87
2022/06/29 01:09:33;;;;;;;5.38;3.50;;;19.20;66.40;;;;;;5059703;28;20177;-88
2022/06/29 01:11:59;;;;;;;5.88;3.55;;;19.30;66.90;;;;;;5072864;28;20177;-88
2022/06/29 01:14:26;;;;;;;5.03;3.40;;;19.30;66.50;;;;;;5070343;28;20203;-88
2022/06/29 01:16:51;;;;;;;7.00;3.47;;;19.30;66.20;;;;;;5057961;28;20224;-88
2022/06/29 01:19:17;;;;;;;3.87;3.30;;;19.30;66.10;;;;;;5058436;28;20180;-87
2022/06/29 01:21:50;;;;;;;5.33;3.90;;;19.30;65.70;;;;;;5076804;28;20200;-87
2022/06/29 01:24:26;;;;;;;3.60;3.30;;;19.20;65.80;;;;;;5058912;28;20407;-87
2022/06/29 01:26:51;;;;;;;4.28;3.80;;;19.20;66.00;;;;;;5057793;28;20199;-87
2022/06/29 01:29:17;;;;;;;6.37;3.60;;;19.10;66.20;;;;;;5076473;28;20676;-88
2022/06/29 01:31:44;;;;;;;6.47;3.60;;;19.10;66.00;;;;;;5039131;28;20179;-87
2022/06/29 01:34:10;;;;;;;4.07;3.30;;;19.10;65.80;;;;;;5039214;28;20982;-87
2022/06/29 01:36:36;;;;;;;4.05;3.65;;;19.10;66.10;;;;;;5056421;28;20227;-88
2022/06/29 01:39:02;;;;;;;6.27;3.70;;;19.00;66.30;;;;;;5038091;28;20177;-87
2022/06/29 01:41:28;;;;;;;3.92;3.30;;;19.10;66.50;;;;;;5051734;28;20425;-88
2022/06/29 01:43:53;;;;;;;5.23;3.80;;;19.00;65.80;;;;;;5058912;28;20336;-87
2022/06/29 01:46:19;;;;;;;5.20;4.30;;;19.10;65.80;;;;;;5058049;28;20203;-88
2022/06/29 01:48:45;;;;;;;8.37;4.50;;;19.00;65.90;;;;;;5057327;28;20221;-87
2022/06/29 01:51:10;;;;;;;5.37;3.73;;;19.00;66.00;;;;;;5058079;28;20176;-88
2022/06/29 01:53:36;;;;;;;12.13;3.93;;;18.90;67.00;;;;;;5058368;28;20176;-88
2022/06/29 01:56:02;;;;;;;4.07;3.50;;;18.90;66.40;;;;;;5058175;28;20200;-87
2022/06/29 01:58:28;;;;;;;5.33;3.50;;;18.90;66.30;;;;;;5041977;28;20199;-87
2022/06/29 02:00:53;;;;;;;5.20;4.33;;;18.80;66.50;;;;;;5076468;28;20429;-87
2022/06/29 02:03:19;;;;;;;5.43;4.40;;;18.80;66.10;;;;;;5076700;28;20288;-88
2022/06/29 02:05:45;;;;;;;4.57;4.17;;;18.80;66.20;;;;;;5076512;28;20283;-87
2022/06/29 02:08:10;;;;;;;5.20;3.60;;;18.80;66.10;;;;;;5060294;28;20188;-87
2022/06/29 02:10:36;;;;;;;5.67;3.60;;;18.80;66.00;;;;;;5056205;28;20566;-87
2022/06/29 02:13:02;;;;;;;5.20;4.33;;;18.80;66.20;;;;;;5037885;28;20177;-87
2022/06/29 02:15:28;;;;;;;4.87;3.80;;;18.70;66.80;;;;;;5055462;28;20545;-87
2022/06/29 02:17:54;;;;;;;4.83;3.90;;;18.70;67.20;;;;;;5037280;28;20502;-87
2022/06/29 02:20:20;;;;;;;5.23;4.07;;;18.70;66.80;;;;;;5037550;28;20430;-87
2022/06/29 02:22:45;;;;;;;7.03;4.40;;;18.70;67.10;;;;;;5037700;28;20204;-87
2022/06/29 02:25:11;;;;;;;5.70;4.40;;;18.60;66.90;;;;;;5050930;28;20480;-87
2022/06/29 02:27:44;;;;;;;5.53;3.77;;;18.60;67.10;;;;;;5057256;28;20250;-87
2022/06/29 02:30:11;;;;;;;5.35;4.47;;;18.50;67.50;;;;;;5075970;28;20184;-87
2022/06/29 02:35:21;;;;;;;6.32;4.68;;;18.60;67.40;;;;;;5076386;28;20164;-87
2022/06/29 02:37:47;;;;;;;4.60;4.20;;;18.50;67.50;;;;;;5037125;28;20201;-87
2022/06/29 02:40:13;;;;;;;6.43;4.43;;;18.50;67.50;;;;;;5038800;28;20177;-87
2022/06/29 02:42:38;;;;;;;5.37;4.30;;;18.50;67.80;;;;;;5038391;28;20931;-87
2022/06/29 02:45:05;;;;;;;7.43;5.20;;;18.40;68.20;;;;;;5037633;28;20841;-87
2022/06/29 02:47:30;;;;;;;5.15;4.65;;;18.40;68.30;;;;;;5037069;28;20292;-87
2022/06/29 02:49:56;;;;;;;6.00;4.77;;;18.40;68.50;;;;;;5036672;28;20732;-88
2022/06/29 02:52:21;;;;;;;7.30;4.60;;;18.40;68.10;;;;;;5019952;28;20185;-88
2022/06/29 02:54:47;;;;;;;8.90;4.70;;;18.40;68.10;;;;;;5036939;28;20237;-87
2022/06/29 02:57:24;;;;;;;7.57;5.17;;;18.40;68.40;;;;;;5054500;28;20361;-87
2022/06/29 02:59:50;;;;;;;7.70;5.38;;;18.30;68.90;;;;;;5037503;28;20521;-87
2022/06/29 03:02:16;;;;;;;6.80;4.90;;;18.30;68.70;;;;;;5055994;28;20204;-88
2022/06/29 03:04:41;;;;;;;7.70;6.00;;;18.30;69.20;;;;;;5038127;28;20177;-87
2022/06/29 03:07:07;;;;;;;6.27;4.60;;;18.30;68.50;;;;;;5037545;28;20197;-88
2022/06/29 03:09:33;;;;;;;8.80;5.30;;;18.30;68.90;;;;;;5021815;28;20638;-87
2022/06/29 03:11:58;;;;;;;5.77;4.60;;;18.20;69.00;;;;;;5038045;28;20668;-87
2022/06/29 03:14:24;;;;;;;5.63;5.10;;;18.20;69.20;;;;;;5037872;28;20559;-86
2022/06/29 03:16:50;;;;;;;6.17;4.53;;;18.20;68.90;;;;;;5037043;28;20205;-87
2022/06/29 03:19:15;;;;;;;7.43;4.93;;;18.20;69.30;;;;;;5038163;28;20649;-87
2022/06/29 03:21:46;;;;;;;5.53;4.77;;;18.20;69.40;;;;;;5038445;28;20239;-87
2022/06/29 03:24:12;;;;;;;5.57;5.07;;;18.10;69.20;;;;;;5038045;28;20173;-88
2022/06/29 03:26:37;;;;;;;7.33;4.37;;;18.10;69.40;;;;;;5037699;28;20236;-88
2022/06/29 03:29:03;;;;;;;5.80;4.50;;;18.20;69.40;;;;;;5038001;28;20214;-88
2022/06/29 03:31:29;;;;;;;5.40;4.90;;;18.20;69.60;;;;;;5067231;28;20752;-87
2022/06/29 03:33:54;;;;;;;5.97;5.33;;;18.10;69.90;;;;;;5062049;28;20173;-87
2022/06/29 03:36:20;;;;;;;6.77;4.87;;;18.10;69.80;;;;;;5032953;28;20228;-88
2022/06/29 03:38:46;;;;;;;7.10;4.80;;;18.10;69.70;;;;;;5045837;28;20177;-88
2022/06/29 03:41:12;;;;;;;5.30;4.50;;;18.10;71.00;;;;;;5048582;28;20177;-87
2022/06/29 03:43:38;;;;;;;9.18;5.18;;;18.00;70.70;;;;;;5042329;28;20208;-87
2022/06/29 03:46:04;;;;;;;6.80;5.00;;;18.00;70.30;;;;;;5037310;28;20205;-88
2022/06/29 03:48:29;;;;;;;6.30;5.53;;;18.10;69.80;;;;;;5036360;28;20177;-87
2022/06/29 03:50:55;;;;;;;8.97;5.70;;;18.10;69.50;;;;;;5037565;28;20177;-88
2022/06/29 03:53:21;;;;;;;6.63;5.30;;;18.10;70.00;;;;;;5038714;28;20187;-87
2022/06/29 03:55:46;;;;;;;8.83;4.80;;;18.00;70.50;;;;;;5036849;28;20222;-87
2022/06/29 03:58:12;;;;;;;6.53;4.80;;;18.00;70.90;;;;;;5036262;28;20681;-88
2022/06/29 04:00:38;;;;;;;5.10;4.60;;;18.00;71.20;;;;;;5036657;28;20196;-87
2022/06/29 04:03:03;;;;;;;7.23;5.17;;;18.00;71.20;;;;;;5036383;28;20208;-87
2022/06/29 04:05:29;;;;;;;5.40;4.90;;;18.00;71.00;;;;;;5055117;28;20257;-88
2022/06/29 04:07:57;;;;;;;6.83;5.93;;;18.10;70.50;;;;;;5037136;28;20222;-87
2022/06/29 04:10:22;;;;;;;7.65;6.30;;;18.10;71.00;;;;;;5055255;28;20169;-86
2022/06/29 04:12:48;;;;;;;10.07;6.17;;;18.10;71.30;;;;;;5020524;28;20189;-88
2022/06/29 04:15:14;;;;;;;6.43;5.33;;;18.10;71.50;;;;;;5055120;28;20216;-88
2022/06/29 04:17:39;;;;;;;8.17;5.50;;;18.10;71.40;;;;;;5054655;28;20259;-88
2022/06/29 04:20:05;;;;;;;6.43;5.57;;;18.10;70.90;;;;;;5064970;28;20184;-88
2022/06/29 04:22:31;;;;;;;6.18;5.40;;;18.20;70.90;;;;;;5050965;28;20201;-88
2022/06/29 04:24:59;;;;;;;5.57;5.03;;;18.10;70.80;;;;;;5036115;28;20189;-87
2022/06/29 04:27:25;;;;;;;7.63;5.78;;;18.20;70.80;;;;;;5042500;28;20279;-88
2022/06/29 04:29:51;;;;;;;6.60;5.53;;;18.20;70.80;;;;;;5060260;28;20276;-87
2022/06/29 04:32:16;;;;;;;8.30;5.47;;;18.20;70.80;;;;;;5060905;28;20500;-87
2022/06/29 04:34:43;;;;;;;6.50;5.43;;;18.20;70.80;;;;;;5061466;28;20176;-86
2022/06/29 04:37:09;;;;;;;7.38;5.53;;;18.30;70.70;;;;;;5047324;28;20201;-87
2022/06/29 04:39:35;;;;;;;12.53;5.50;;;18.30;70.60;;;;;;5028167;28;20192;-87
2022/06/29 04:42:00;;;;;;;6.60;5.87;;;18.40;70.30;;;;;;5020360;28;20224;-87
2022/06/29 04:44:26;;;;;;;7.83;6.30;;;18.40;70.20;;;;;;5020262;28;20439;-87
2022/06/29 04:46:54;;;;;;;8.73;5.90;;;18.60;68.60;;;;;;5019487;28;20281;-87
2022/06/29 04:49:19;;;;;;;5.85;5.35;;;18.70;68.20;;;;;;5020393;28;20182;-87
2022/06/29 04:51:45;;;;;;;6.77;5.77;;;18.60;69.20;;;;;;5019877;28;20224;-87
2022/06/29 04:54:11;;;;;;;6.23;5.43;;;18.60;69.10;;;;;;5037994;28;20654;-86
2022/06/29 04:56:36;;;;;;;7.57;5.30;;;18.60;68.50;;;;;;5019499;28;20197;-89
2022/06/29 04:59:05;;;;;;;9.07;6.70;;;18.60;69.20;;;;;;5038444;28;20186;-87
2022/06/29 05:01:33;;;;;;;6.03;5.50;;;18.60;69.30;;;;;;5025738;28;20182;-87
2022/06/29 05:03:59;;;;;;;7.43;6.75;;;18.60;69.00;;;;;;5077604;28;20528;-88
2022/06/29 05:06:25;;;;;;;8.10;6.28;;;18.80;68.10;;;;;;5058759;28;20263;-88
2022/06/29 05:08:52;;;;;;;6.77;6.07;;;18.90;67.30;;;;;;5058425;28;20177;-88
2022/06/29 05:11:18;;;;;;;7.38;6.07;;;19.00;66.90;;;;;;5059224;28;20412;-87
2022/06/29 05:13:47;;;;;;;8.27;6.25;;;19.00;67.00;;;;;;5042896;28;20189;-87
2022/06/29 05:16:13;;;;;;;6.05;5.45;;;19.00;67.40;;;;;;5040022;28;20209;-87
2022/06/29 05:18:38;;;;;;;6.82;4.97;;;19.20;67.10;;;;;;5039173;28;20235;-86
2022/06/29 05:21:06;;;;;;;4.97;4.47;;;19.60;66.60;;;;;;5058758;28;20177;-86
2022/06/29 05:23:32;;;;;;;5.07;3.80;;;20.50;65.00;;;;;;5041063;28;20208;-86
2022/06/29 05:25:58;;;;;;;4.37;3.97;;;21.70;61.00;;;;;;5040611;28;20566;-85
2022/06/29 05:28:24;;;;;;;6.43;3.80;;;23.00;56.90;;;;;;5039254;28;20447;-88
2022/06/29 05:30:56;;;;;;;4.50;3.93;;;24.30;53.20;;;;;;5040225;28;20408;-87
2022/06/29 05:33:22;;;;;;;4.23;3.23;;;25.40;49.30;;;;;;5039686;28;20188;-88
2022/06/29 05:35:47;;;;;;;3.00;2.70;;;26.40;45.70;;;;;;5039605;28;20440;-86
2022/06/29 05:38:13;;;;;;;5.40;3.53;;;27.40;43.30;;;;;;5038883;28;20181;-88
2022/06/29 05:40:42;;;;;;;4.60;4.20;;;27.90;40.00;;;;;;5057015;28;20216;-88
2022/06/29 05:43:08;;;;;;;5.40;4.00;;;28.40;39.20;;;;;;5039184;28;20204;-87
2022/06/29 05:45:33;;;;;;;3.80;3.50;;;28.90;38.30;;;;;;5044790;28;20442;-88
2022/06/29 05:47:59;;;;;;;4.57;4.10;;;29.30;37.70;;;;;;5039012;28;20229;-87
2022/06/29 05:50:25;;;;;;;4.63;3.50;;;29.60;37.00;;;;;;5054707;28;20177;-88
2022/06/29 05:52:51;;;;;;;4.60;4.17;;;30.00;36.60;;;;;;5054272;28;20188;-88
2022/06/29 05:55:17;;;;;;;4.80;4.17;;;30.30;35.80;;;;;;5036526;28;20179;-88
2022/06/29 05:57:43;;;;;;;3.70;3.40;;;30.40;34.90;;;;;;5035968;28;20443;-88
2022/06/29 06:00:10;;;;;;;5.03;3.47;;;30.40;34.60;;;;;;5054738;28;20420;-87
2022/06/29 06:02:36;;;;;;;7.10;3.90;;;30.10;35.00;;;;;;5036301;28;20205;-88
2022/06/29 06:05:03;;;;;;;5.70;3.70;;;29.70;35.60;;;;;;5019831;28;20416;-88
2022/06/29 06:07:28;;;;;;;4.80;3.30;;;29.40;36.40;;;;;;5054167;28;20707;-88
2022/06/29 06:09:54;;;;;;;5.13;4.33;;;29.00;37.20;;;;;;5064567;28;20426;-88
2022/06/29 06:12:23;;;;;;;4.73;4.23;;;28.60;37.60;;;;;;5075048;28;20173;-88
2022/06/29 06:14:53;;;;;;;4.67;3.80;;;28.00;39.30;;;;;;5056654;28;20331;-88
2022/06/29 06:17:19;;;;;;;3.40;3.10;;;27.80;40.10;;;;;;5055813;28;20520;-89
2022/06/29 06:19:45;;;;;;;5.30;3.90;;;27.60;40.50;;;;;;5059238;28;20417;-87
2022/06/29 06:22:12;;;;;;;6.73;4.10;;;27.60;40.80;;;;;;5077229;28;20560;-87
2022/06/29 06:24:38;;;;;;;10.10;3.90;;;27.50;41.00;;;;;;5052161;28;20434;-87
2022/06/29 06:27:04;;;;;;;4.50;3.80;;;27.30;40.70;;;;;;5056180;28;20413;-87
2022/06/29 06:29:29;;;;;;;3.77;2.90;;;27.20;41.20;;;;;;5076158;28;20188;-87
2022/06/29 06:31:55;;;;;;;5.50;3.30;;;27.30;41.70;;;;;;5058830;28;20180;-87
2022/06/29 06:34:21;;;;;;;3.53;3.23;;;27.50;40.90;;;;;;5058740;28;20284;-86
2022/06/29 06:36:47;;;;;;;3.43;3.13;;;28.00;40.30;;;;;;5030915;28;20212;-86
2022/06/29 06:39:12;;;;;;;4.30;3.33;;;28.30;39.40;;;;;;5027657;28;20186;-87
2022/06/29 06:41:38;;;;;;;4.00;3.57;;;28.60;38.70;;;;;;5028224;28;20176;-86
2022/06/29 06:44:04;;;;;;;3.17;2.83;;;28.90;38.80;;;;;;5059546;28;20209;-86
2022/06/29 06:46:29;;;;;;;5.10;2.93;;;29.10;38.90;;;;;;5059798;28;20290;-86
2022/06/29 06:48:55;;;;;;;3.83;2.90;;;29.30;38.40;;;;;;5049225;28;20204;-87
2022/06/29 06:51:23;;;;;;;2.60;2.40;;;29.40;37.70;;;;;;5047374;28;20261;-86
2022/06/29 06:53:50;;;;;;;6.10;3.30;;;29.40;36.70;;;;;;5055750;28;20423;-87
2022/06/29 06:56:16;;;;;;;3.13;2.70;;;29.40;36.60;;;;;;5033991;28;20458;-87
2022/06/29 06:58:42;;;;;;;5.00;3.10;;;29.30;37.20;;;;;;5038535;28;20458;-87
2022/06/29 07:01:10;;;;;;;8.30;3.00;;;29.30;37.60;;;;;;5054645;28;20424;-86
2022/06/29 07:03:38;;;;;;;3.73;2.73;;;29.20;38.30;;;;;;5041297;28;20482;-86
2022/06/29 07:06:09;;;;;;;5.50;2.90;;;29.20;38.20;;;;;;5036907;28;20445;-87
2022/06/29 07:08:54;;;;;;;6.07;3.73;;;29.30;37.70;;;;;;5058939;28;20450;-86
2022/06/29 07:11:20;;;;;;;4.90;2.93;;;29.30;37.30;;;;;;5050934;28;20524;-85
2022/06/29 07:13:46;;;;;;;6.60;3.40;;;29.20;38.10;;;;;;5059494;28;20434;-86
2022/06/29 07:16:13;;;;;;;3.13;2.83;;;28.90;38.50;;;;;;5044087;28;20534;-87
2022/06/29 07:18:38;;;;;;;6.30;2.70;;;29.00;38.50;;;;;;5044383;28;20510;-87
2022/06/29 07:21:04;;;;;;;6.27;3.03;;;29.00;37.20;;;;;;5044306;28;20435;-86
2022/06/29 07:23:30;;;;;;;3.70;2.50;;;28.70;35.90;;;;;;5022520;28;20236;-87
2022/06/29 07:25:56;;;;;;;5.47;2.37;;;28.50;37.30;;;;;;5070978;28;20790;-87
2022/06/29 07:28:22;;;;;;;4.30;2.47;;;28.50;37.30;;;;;;5061100;28;20543;-86
2022/06/29 07:30:51;;;;;;;4.53;2.73;;;28.50;38.80;;;;;;5056038;28;20405;-87
2022/06/29 07:33:17;;;;;;;10.60;2.70;;;28.40;37.20;;;;;;5048115;28;20188;-86
2022/06/29 07:35:43;;;;;;;4.63;3.13;;;28.20;38.90;;;;;;5049258;28;20391;-86
2022/06/29 07:38:10;;;;;;;7.13;2.27;;;27.90;38.50;;;;;;5064499;28;20175;-87
2022/06/29 07:40:39;;;;;;;5.60;2.70;;;27.40;39.00;;;;;;5027455;28;20182;-86
2022/06/29 07:43:05;;;;;;;4.30;2.90;;;27.10;39.60;;;;;;5037249;28;21190;-87
2022/06/29 07:45:31;;;;;;;3.50;2.47;;;26.90;39.60;;;;;;5016553;28;20453;-87
2022/06/29 07:47:56;;;;;;;3.10;2.10;;;26.50;40.20;;;;;;5020713;28;20565;-87
2022/06/29 07:50:22;;;;;;;3.97;2.40;;;26.30;41.70;;;;;;5036701;28;20416;-87
2022/06/29 07:52:48;;;;;;;4.87;2.63;;;26.10;42.20;;;;;;5018726;28;20606;-87
2022/06/29 07:55:14;;;;;;;7.50;3.37;;;25.90;41.70;;;;;;5018703;28;20676;-86
2022/06/29 07:57:39;;;;;;;4.27;2.70;;;25.80;41.90;;;;;;5018554;28;20207;-87
2022/06/29 08:00:07;;;;;;;2.73;2.40;;;25.50;43.60;;;;;;5055518;28;20621;-86
2022/06/29 08:02:32;;;;;;;5.83;2.73;;;25.40;44.20;;;;;;5041574;28;20205;-86
2022/06/29 08:05:00;;;;;;;7.40;2.73;;;25.30;44.40;;;;;;5041759;28;20439;-86
2022/06/29 08:07:26;;;;;;;3.83;2.33;;;25.30;43.50;;;;;;5059805;28;20201;-87
2022/06/29 08:09:53;;;;;;;3.80;2.13;;;25.30;43.90;;;;;;5060475;28;20409;-87
2022/06/29 08:12:19;;;;;;;8.93;2.57;;;25.30;44.10;;;;;;5040869;28;20425;-88
2022/06/29 08:14:45;;;;;;;5.23;2.43;;;25.20;45.20;;;;;;5056333;28;20408;-87
2022/06/29 08:17:11;;;;;;;5.63;2.93;;;25.10;45.90;;;;;;5040678;28;20485;-87
2022/06/29 08:19:37;;;;;;;8.93;2.53;;;25.00;46.20;;;;;;5040895;28;20205;-87
2022/06/29 08:22:02;;;;;;;5.87;3.00;;;24.90;48.60;;;;;;5041751;28;20475;-87
2022/06/29 08:24:28;;;;;;;6.43;3.70;;;25.00;46.20;;;;;;5060072;28;20277;-87
2022/06/29 08:26:54;;;;;;;3.40;2.80;;;25.00;45.60;;;;;;5025520;28;20260;-87
2022/06/29 08:29:20;;;;;;;4.53;2.90;;;25.00;45.40;;;;;;5042119;28;20188;-87
2022/06/29 08:31:46;;;;;;;5.23;2.87;;;25.00;45.20;;;;;;5060403;28;20471;-87
2022/06/29 08:34:15;;;;;;;7.20;2.60;;;25.00;46.30;;;;;;5026150;28;20423;-87
2022/06/29 08:36:41;;;;;;;4.20;3.13;;;24.80;47.30;;;;;;5041117;28;20489;-87
2022/06/29 08:39:07;;;;;;;4.93;2.90;;;25.00;46.10;;;;;;5042239;28;20416;-86
2022/06/29 08:41:34;;;;;;;6.03;3.07;;;25.00;46.00;;;;;;5042974;28;20237;-86
2022/06/29 08:44:03;;;;;;;3.00;2.67;;;25.00;46.50;;;;;;5041547;28;20553;-87
2022/06/29 08:46:29;;;;;;;6.43;2.57;;;24.80;49.00;;;;;;5058640;28;20423;-87
2022/06/29 08:48:54;;;;;;;4.57;3.60;;;24.70;49.80;;;;;;5042636;28;20477;-87
2022/06/29 08:51:22;;;;;;;5.70;3.90;;;24.70;48.40;;;;;;5058770;28;20260;-87
2022/06/29 08:53:50;;;;;;;8.40;3.90;;;24.70;49.30;;;;;;5039194;28;20178;-87
2022/06/29 08:56:17;;;;;;;5.00;2.60;;;24.80;49.50;;;;;;5038122;28;20444;-87
2022/06/29 08:58:45;;;;;;;5.23;3.50;;;24.80;47.90;;;;;;5038410;28;20415;-86
2022/06/29 09:01:12;;;;;;;8.07;3.33;;;24.70;50.00;;;;;;5038499;28;20999;-87
2022/06/29 09:03:40;;;;;;;7.10;3.20;;;24.80;47.80;;;;;;5058156;28;20505;-87
2022/06/29 09:06:06;;;;;;;6.27;3.27;;;24.70;48.10;;;;;;5041277;28;20432;-87
2022/06/29 09:08:33;;;;;;;7.90;3.07;;;24.80;46.20;;;;;;5037693;28;20470;-87
2022/06/29 09:11:23;;;;;;;6.77;3.10;;;24.90;47.00;;;;;;5038297;28;20417;-87
2022/06/29 09:14:12;;;;;;;7.80;2.90;;;25.00;46.30;;;;;;5055310;28;20915;-87
2022/06/29 09:16:51;;;;;;;4.60;2.67;;;25.20;46.40;;;;;;5055903;28;20502;-86
2022/06/29 09:19:17;;;;;;;5.20;3.40;;;25.00;47.80;;;;;;5038897;28;20458;-87
2022/06/29 09:21:51;;;;;;;3.27;2.90;;;25.00;46.60;;;;;;5038598;28;20415;-86
2022/06/29 09:24:26;;;;;;;3.70;2.73;;;25.00;47.30;;;;;;5038270;28;20404;-87
2022/06/29 09:27:05;;;;;;;9.03;3.63;;;25.00;48.40;;;;;;5037668;28;20431;-87
2022/06/29 09:29:35;;;;;;;4.67;3.10;;;25.10;45.30;;;;;;5036604;28;20427;-86
2022/06/29 09:32:02;;;;;;;10.33;3.37;;;25.20;44.40;;;;;;5056350;28;20814;-87
2022/06/29 09:34:35;;;;;;;8.00;3.77;;;25.30;43.70;;;;;;5038044;28;20442;-87
2022/06/29 09:37:02;;;;;;;6.63;3.40;;;25.40;42.90;;;;;;5029900;28;20512;-87
2022/06/29 09:39:44;;;;;;;3.77;3.30;;;25.40;42.30;;;;;;5017835;28;20432;-87
2022/06/29 09:42:17;;;;;;;4.47;3.20;;;25.40;43.90;;;;;;5018002;28;20452;-88
2022/06/29 09:44:44;;;;;;;7.20;3.03;;;25.30;43.00;;;;;;5018487;28;20489;-88
2022/06/29 09:47:16;;;;;;;6.13;3.50;;;25.10;44.20;;;;;;5017940;28;20472;-88
2022/06/29 09:49:51;;;;;;;4.27;2.50;;;25.20;43.80;;;;;;5018512;28;20866;-88
2022/06/29 09:52:19;;;;;;;2.77;2.30;;;25.20;44.70;;;;;;5017539;28;20412;-88
2022/06/29 09:54:52;;;;;;;2.67;2.00;;;25.20;43.90;;;;;;5018184;28;20430;-88
2022/06/29 09:57:25;;;;;;;3.97;2.63;;;25.00;45.10;;;;;;5017034;28;20801;-87
2022/06/29 10:02:43;;;;;;;2.33;2.10;;;25.20;43.50;;;;;;5038889;28;20546;-88
2022/06/29 10:05:12;;;;;;;3.40;2.20;;;25.30;43.90;;;;;;5039139;28;20414;-87
2022/06/29 10:07:41;;;;;;;3.40;2.50;;;25.30;43.90;;;;;;5044338;28;20482;-88
2022/06/29 10:10:09;;;;;;;4.47;2.30;;;25.10;45.30;;;;;;5045833;28;20409;-88
2022/06/29 10:15:40;;;;;;;5.23;1.80;;;24.90;46.00;;;;;;5034449;28;20396;-87
2022/06/29 10:18:15;;;;;;;3.73;2.20;;;24.90;45.30;;;;;;5016006;28;20427;-88
2022/06/29 10:20:47;;;;;;;3.47;2.13;;;24.80;45.40;;;;;;5034139;28;20539;-88
2022/06/29 10:23:45;;;;;;;2.63;2.10;;;24.80;44.00;;;;;;5018575;28;20539;-87
2022/06/29 10:26:39;;;;;;;7.13;1.97;;;24.60;46.50;;;;;;5032731;28;20436;-88
2022/06/29 10:29:08;;;;;;;5.27;1.93;;;25.10;42.30;;;;;;5033703;28;20587;-88
2022/06/29 10:31:51;;;;;;;4.63;2.47;;;25.40;41.10;;;;;;5033900;28;20412;-87
2022/06/29 10:35:05;;;;;;;4.40;2.17;;;25.20;42.60;;;;;;5015928;28;20918;-89
2022/06/29 10:37:24;;;;;;;4.50;1.90;;;25.50;40.60;;;;;;5033286;28;20437;-87
2022/06/29 10:39:55;;;;;;;3.13;1.90;;;25.80;38.80;;;;;;5016022;28;20466;-88
2022/06/29 10:45:16;;;;;;;3.83;2.33;;;26.10;38.30;;;;;;5033824;28;20417;-88
2022/06/29 10:47:54;;;;;;;3.73;1.73;;;25.90;40.80;;;;;;5015439;28;20444;-88
2022/06/29 10:50:28;;;;;;;3.93;1.70;;;25.90;39.00;;;;;;5017539;28;20489;-88
2022/06/29 10:53:02;;;;;;;2.20;1.50;;;25.90;41.10;;;;;;5017372;28;20413;-87
2022/06/29 10:55:33;;;;;;;2.97;1.63;;;25.90;37.50;;;;;;5027678;28;20418;-87
2022/06/29 10:58:00;;;;;;;3.23;1.80;;;26.00;37.40;;;;;;5035011;28;20476;-87
2022/06/29 11:00:27;;;;;;;6.70;1.87;;;26.20;37.30;;;;;;5063345;28;20422;-88
2022/06/29 11:03:13;;;;;;;4.80;1.90;;;26.40;37.10;;;;;;5035559;28;20467;-87
2022/06/29 11:12:01;;;;;;;7.00;2.23;;;26.50;38.00;;;;;;5047909;28;20411;-87
2022/06/29 11:13:59;;;;;;;2.93;1.70;;;26.40;40.10;;;;;;5040146;28;20419;-87
2022/06/29 11:16:33;;;;;;;2.20;1.77;;;26.30;40.80;;;;;;5015496;28;20552;-87
2022/06/29 11:18:59;;;;;;;2.70;1.40;;;26.50;38.50;;;;;;5042635;28;20422;-87
2022/06/29 11:21:28;;;;;;;5.20;2.00;;;26.60;38.10;;;;;;5052810;28;20522;-88
2022/06/29 11:24:04;;;;;;;4.27;1.80;;;26.90;35.10;;;;;;5021235;28;20442;-87
2022/06/29 11:26:32;;;;;;;4.37;1.90;;;27.00;33.90;;;;;;5033139;28;20464;-88
2022/06/29 11:28:57;;;;;;;8.63;2.00;;;27.00;35.00;;;;;;5015170;28;20444;-88
2022/06/29 11:31:23;;;;;;;2.80;1.83;;;27.10;35.50;;;;;;5015099;28;20434;-87
2022/06/29 11:33:52;;;;;;;3.60;1.70;;;27.20;35.00;;;;;;5038646;28;20203;-88
2022/06/29 11:36:28;;;;;;;3.97;1.80;;;27.10;37.30;;;;;;5026544;28;20445;-88
2022/06/29 11:39:03;;;;;;;4.87;1.77;;;26.90;38.10;;;;;;5015292;28;20740;-88
2022/06/29 11:44:28;;;;;;;4.43;1.93;;;26.90;37.10;;;;;;5071692;28;20421;-87
2022/06/29 11:46:54;;;;;;;3.10;2.00;;;27.40;34.20;;;;;;5073890;22;20508;-88
2022/06/29 11:49:38;;;;;;;3.03;1.93;;;27.40;35.80;;;;;;5047293;28;20386;-88
2022/06/29 11:52:06;;;;;;;3.93;2.00;;;27.30;37.40;;;;;;5035232;28;20416;-89
2022/06/29 11:54:48;;;;;;;4.53;1.83;;;27.20;39.10;;;;;;5036199;28;20831;-88
2022/06/29 11:57:23;;;;;;;1.63;1.50;;;27.50;33.90;;;;;;5036062;28;20983;-87
2022/06/29 11:59:49;;;;;;;6.03;2.83;;;27.80;30.40;;;;;;5035011;28;20414;-88
2022/06/29 12:02:17;;;;;;;1.97;1.77;;;27.80;30.20;;;;;;5033947;28;21025;-87
2022/06/29 12:04:45;;;;;;;2.00;1.47;;;27.90;33.10;;;;;;5033740;28;20380;-87
2022/06/29 12:07:20;;;;;;;11.97;2.20;;;27.80;34.90;;;;;;5022320;28;20420;-89
2022/06/29 12:09:46;;;;;;;4.47;1.80;;;27.70;35.30;;;;;;5032564;28;20421;-89
2022/06/29 12:12:13;;;;;;;4.90;2.27;;;27.40;36.20;;;;;;5031698;28;20441;-88
2022/06/29 12:14:40;;;;;;;6.07;2.03;;;27.40;35.90;;;;;;5032686;28;20233;-88
2022/06/29 12:17:07;;;;;;;3.37;1.83;;;27.10;36.80;;;;;;5030619;28;20960;-88
2022/06/29 12:19:33;;;;;;;3.13;1.90;;;27.20;35.30;;;;;;5031994;28;20396;-89
2022/06/29 12:21:58;;;;;;;4.93;1.73;;;27.60;32.30;;;;;;5031794;28;20423;-89
2022/06/29 12:24:31;;;;;;;7.27;1.83;;;27.70;32.40;;;;;;5033004;28;20800;-88
2022/06/29 12:26:57;;;;;;;2.00;1.80;;;27.90;32.20;;;;;;5031468;28;20452;-89
2022/06/29 12:29:23;;;;;;;3.00;1.80;;;27.90;31.40;;;;;;5032251;28;20949;-88
2022/06/29 12:31:49;;;;;;;2.40;1.97;;;28.00;31.40;;;;;;5032175;28;20421;-88
2022/06/29 12:34:15;;;;;;;1.70;1.37;;;28.10;30.30;;;;;;5032970;28;20805;-88
2022/06/29 12:36:42;;;;;;;3.80;1.60;;;28.10;32.40;;;;;;5032966;28;20251;-89
2022/06/29 12:39:08;;;;;;;4.63;2.03;;;28.10;34.10;;;;;;5034522;28;20388;-89
2022/06/29 12:41:35;;;;;;;2.70;1.50;;;28.20;32.60;;;;;;5016748;28;20509;-88
2022/06/29 12:44:02;;;;;;;2.70;1.83;;;28.00;34.10;;;;;;5034318;28;20457;-90
2022/06/29 12:46:29;;;;;;;3.53;1.90;;;28.00;33.80;;;;;;5023662;28;20520;-90
2022/06/29 12:48:56;;;;;;;2.90;1.60;;;28.40;30.10;;;;;;5040462;28;20390;-89
2022/06/29 12:51:22;;;;;;;2.73;1.53;;;28.30;33.70;;;;;;5028068;28;20512;-88
2022/06/29 12:53:48;;;;;;;3.10;1.63;;;28.30;34.60;;;;;;5027961;28;20392;-88
2022/06/29 12:56:14;;;;;;;1.70;1.40;;;27.80;35.10;;;;;;5033010;28;20501;-88
2022/06/29 12:58:46;;;;;;;6.60;1.80;;;27.80;35.20;;;;;;5036054;28;20712;-89
2022/06/29 13:01:12;;;;;;;5.57;1.80;;;28.10;31.50;;;;;;5036484;28;20429;-89
2022/06/29 13:03:37;;;;;;;5.13;2.20;;;28.20;30.70;;;;;;5033409;28;20434;-88
2022/06/29 13:06:03;;;;;;;13.53;2.27;;;28.00;34.30;;;;;;5033494;28;20441;-89
2022/06/29 13:08:29;;;;;;;2.67;2.17;;;28.00;34.20;;;;;;5034547;28;20193;-91